Time;durP1;ratioP1;P1;durP2;ratioP2;P2;SDS_P1;SDS_P2;PMS_P1;PMS_P2;Temp;Humidity;BMP_temperature;BMP_pressure;BME280_temperature;BME280_humidity;BME280_pressure;Samples;Min_cycle;Max_cycle;Signal;HPM_P1;HPM_P2
2023/05/12 00:01:14;;;;;;;5.27;4.10;;;;;;;9.67;88.59;97657.59;6142905;28;20804;-51
2023/05/12 00:04:17;;;;;;;5.10;4.53;;;;;;;9.70;88.67;97659.78;6142418;28;20231;-51
2023/05/12 00:07:20;;;;;;;4.03;3.63;;;;;;;9.69;88.85;97655.50;6140776;28;20340;-51
2023/05/12 00:10:22;;;;;;;4.30;3.90;;;;;;;9.69;88.46;97657.34;6126680;28;20243;-52
2023/05/12 00:13:24;;;;;;;4.50;4.07;;;;;;;9.48;88.39;97630.38;6142809;28;20230;-53
2023/05/12 00:16:26;;;;;;;4.47;4.07;;;;;;;9.68;88.78;97666.38;6147847;28;20241;-52
2023/05/12 00:19:30;;;;;;;5.03;4.60;;;;;;;9.67;88.60;97662.91;6141415;28;20238;-52
2023/05/12 00:22:32;;;;;;;5.83;4.53;;;;;;;9.66;88.50;97656.00;6143202;28;20243;-52
2023/05/12 00:25:34;;;;;;;5.20;4.70;;;;;;;9.58;88.39;97653.69;6142239;28;20226;-51
2023/05/12 00:28:37;;;;;;;4.93;4.23;;;;;;;9.63;88.85;97661.78;6142007;28;20242;-52
2023/05/12 00:31:39;;;;;;;5.13;4.63;;;;;;;9.64;88.64;97658.06;6144002;28;20248;-52
2023/05/12 00:34:42;;;;;;;5.10;4.60;;;;;;;9.66;89.12;97650.69;6141584;28;20335;-52
2023/05/12 00:37:45;;;;;;;4.90;4.40;;;;;;;9.68;88.78;97650.44;6144877;28;20745;-47
2023/05/12 00:40:47;;;;;;;8.33;5.07;;;;;;;9.66;88.66;97648.00;6146622;28;20243;-48
2023/05/12 00:43:49;;;;;;;5.53;4.93;;;;;;;9.65;88.85;97649.03;6145992;28;20280;-47
2023/05/12 00:46:52;;;;;;;4.93;4.43;;;;;;;9.66;88.63;97655.19;6134518;28;20236;-46
2023/05/12 00:49:54;;;;;;;6.50;5.73;;;;;;;9.68;89.06;97653.09;6146977;28;20246;-49
2023/05/12 00:52:59;;;;;;;6.77;5.27;;;;;;;9.66;89.33;97665.81;6128638;28;20232;-47
2023/05/12 00:56:01;;;;;;;6.57;5.70;;;;;;;9.66;89.24;97649.88;6159931;28;20241;-50
2023/05/12 00:59:05;;;;;;;6.13;5.53;;;;;;;9.67;89.21;97654.94;6147738;28;20813;-48
2023/05/12 01:02:08;;;;;;;6.20;5.60;;;;;;;9.68;89.33;97653.88;6128745;28;20355;-49
2023/05/12 01:05:11;;;;;;;8.10;6.23;;;;;;;9.68;89.79;97656.56;6146682;28;20256;-48
2023/05/12 01:08:18;;;;;;;6.50;5.90;;;;;;;9.70;89.12;97657.13;6160051;28;20237;-52
2023/05/12 01:11:22;;;;;;;7.40;6.47;;;;;;;9.70;89.56;97658.97;6146403;28;20310;-52
2023/05/12 01:14:24;;;;;;;8.83;6.97;;;;;;;9.70;89.70;97656.31;6146955;28;20238;-47
2023/05/12 01:17:34;;;;;;;7.27;6.57;;;;;;;9.71;89.83;97658.75;6136844;28;20227;-48
2023/05/12 01:20:41;;;;;;;7.87;7.07;;;;;;;9.71;89.91;97655.28;6147815;28;20311;-47
2023/05/12 01:23:50;;;;;;;7.27;6.50;;;;;;;9.74;90.00;97660.13;6143731;28;20233;-45
2023/05/12 01:26:52;;;;;;;8.57;7.50;;;;;;;9.75;89.79;97661.72;6146411;28;20240;-45
2023/05/12 01:29:57;;;;;;;8.33;6.63;;;;;;;9.75;90.24;97667.03;6128799;28;20236;-46
2023/05/12 01:33:00;;;;;;;10.00;6.57;;;;;;;9.75;90.50;97659.06;6132386;28;20241;-49
2023/05/12 01:36:03;;;;;;;6.97;6.27;;;;;;;9.76;89.92;97668.69;6146956;28;20250;-48
2023/05/12 01:39:06;;;;;;;7.43;6.73;;;;;;;9.76;90.19;97661.50;6130494;28;20235;-46
2023/05/12 01:42:08;;;;;;;9.03;6.57;;;;;;;9.74;90.24;97665.44;6143640;28;20308;-46
2023/05/12 01:45:11;;;;;;;7.60;6.20;;;;;;;9.75;90.63;97664.38;6147036;28;20252;-46
2023/05/12 01:48:13;;;;;;;7.87;6.53;;;;;;;9.75;90.67;97653.75;6132540;28;20234;-47
2023/05/12 01:51:16;;;;;;;7.77;6.57;;;;;;;9.71;90.14;97656.09;6134597;28;20225;-47
2023/05/12 01:54:19;;;;;;;8.70;6.33;;;;;;;9.73;90.44;97651.34;6108584;28;20323;-46
2023/05/12 01:57:21;;;;;;;9.00;6.17;;;;;;;9.74;90.47;97658.25;6129766;28;20243;-47
2023/05/12 02:00:26;;;;;;;6.97;6.13;;;;;;;9.75;91.09;97661.72;6132940;28;20263;-47
2023/05/12 02:03:31;;;;;;;8.00;7.20;;;;;;;9.70;90.79;97661.63;6147243;28;20232;-46
2023/05/12 02:06:33;;;;;;;8.53;7.30;;;;;;;9.69;90.74;97652.03;6145355;28;20235;-46
2023/05/12 02:09:36;;;;;;;11.37;7.80;;;;;;;9.71;90.85;97661.41;6123394;28;20235;-47
2023/05/12 02:12:38;;;;;;;10.23;7.20;;;;;;;9.70;90.69;97664.28;6136751;28;20243;-46
2023/05/12 02:15:40;;;;;;;8.67;7.80;;;;;;;9.71;91.22;97660.59;6130066;28;20231;-45
2023/05/12 02:18:43;;;;;;;7.67;6.87;;;;;;;9.70;91.10;97658.97;6134790;28;20236;-45
2023/05/12 02:21:45;;;;;;;8.47;7.53;;;;;;;9.71;91.31;97657.94;6135631;28;20232;-47
2023/05/12 02:24:48;;;;;;;9.53;8.63;;;;;;;9.68;91.22;97663.72;6144618;28;21031;-46
2023/05/12 02:27:50;;;;;;;10.93;7.77;;;;;;;9.59;90.91;97654.50;6127138;28;20263;-46
2023/05/12 02:30:53;;;;;;;10.63;8.07;;;;;;;9.65;91.22;97665.00;6144621;28;20235;-45
2023/05/12 02:33:57;;;;;;;7.93;6.63;;;;;;;9.63;91.10;97663.63;6146151;28;20242;-47
2023/05/12 02:37:00;;;;;;;9.57;7.30;;;;;;;9.66;90.94;97660.50;6142565;28;20249;-47
2023/05/12 02:40:03;;;;;;;11.20;6.77;;;;;;;9.54;90.86;97658.66;6130306;28;20248;-46
2023/05/12 02:43:06;;;;;;;7.37;6.67;;;;;;;9.51;90.76;97655.69;6136320;28;20240;-47
2023/05/12 02:46:09;;;;;;;6.97;6.30;;;;;;;9.44;90.87;97655.81;6146559;28;20238;-49
2023/05/12 02:49:12;;;;;;;9.17;7.23;;;;;;;9.40;90.96;97651.19;6134749;28;20244;-45
2023/05/12 02:52:14;;;;;;;10.53;6.90;;;;;;;9.39;91.20;97662.88;6136127;28;20740;-46
2023/05/12 02:55:16;;;;;;;11.77;6.97;;;;;;;9.42;91.00;97662.41;6144730;28;20608;-45
2023/05/12 02:58:19;;;;;;;7.60;6.53;;;;;;;9.43;91.31;97661.38;6143336;28;20235;-48
2023/05/12 03:01:21;;;;;;;10.07;6.97;;;;;;;9.52;91.28;97660.75;6127211;28;20740;-46
2023/05/12 03:04:24;;;;;;;8.70;6.87;;;;;;;9.45;91.44;97664.59;6126260;28;20779;-48
2023/05/12 03:07:26;;;;;;;7.70;6.73;;;;;;;9.44;91.55;97668.28;6129336;28;20701;-46
2023/05/12 03:10:29;;;;;;;9.80;7.33;;;;;;;9.42;91.50;97663.22;6135365;28;20245;-48
2023/05/12 03:13:32;;;;;;;17.70;7.83;;;;;;;9.41;91.57;97666.94;6131882;28;20252;-47
2023/05/12 03:16:34;;;;;;;7.40;6.60;;;;;;;9.29;90.95;97663.47;6141533;28;20249;-46
2023/05/12 03:19:37;;;;;;;11.57;6.50;;;;;;;9.32;91.41;97670.97;6145951;28;20228;-48
2023/05/12 03:22:39;;;;;;;9.80;6.97;;;;;;;9.34;91.45;97668.88;6142870;28;20240;-50
2023/05/12 03:25:43;;;;;;;11.37;6.83;;;;;;;9.36;91.80;97666.81;6143072;28;20293;-46
2023/05/12 03:28:46;;;;;;;14.27;6.87;;;;;;;9.33;91.69;97653.19;6134118;28;20620;-46
2023/05/12 03:31:49;;;;;;;10.37;6.50;;;;;;;9.44;90.58;97660.31;6126929;28;20230;-46
2023/05/12 03:34:51;;;;;;;6.93;6.27;;;;;;;9.32;90.90;97663.00;6146476;28;20273;-51
2023/05/12 03:37:53;;;;;;;7.20;6.13;;;;;;;9.26;91.45;97659.44;6126329;28;20243;-49
2023/05/12 03:41:06;;;;;;;7.90;7.10;;;;;;;9.38;90.92;97645.31;6146609;28;20226;-48
2023/05/12 03:44:10;;;;;;;8.10;6.53;;;;;;;9.26;91.46;97651.47;6142676;28;20239;-46
2023/05/12 03:47:12;;;;;;;8.03;6.93;;;;;;;9.23;91.58;97651.91;6144470;28;20224;-46
2023/05/12 03:50:15;;;;;;;10.00;8.07;;;;;;;9.23;92.05;97661.75;6127643;28;20226;-45
2023/05/12 03:53:18;;;;;;;7.87;7.07;;;;;;;9.22;91.92;97662.78;6127665;28;20237;-48
2023/05/12 03:56:20;;;;;;;7.87;7.17;;;;;;;9.21;91.51;97663.81;6134165;28;20328;-49
2023/05/12 03:59:22;;;;;;;10.43;8.03;;;;;;;9.20;91.63;97670.19;6135009;28;20227;-49
2023/05/12 04:02:25;;;;;;;8.13;7.33;;;;;;;9.19;91.90;97668.56;6133811;28;20240;-45
2023/05/12 04:05:28;;;;;;;9.33;8.43;;;;;;;9.20;91.84;97668.31;6129419;28;20245;-47
2023/05/12 04:08:30;;;;;;;9.80;8.67;;;;;;;9.34;91.54;97668.88;6144813;28;20241;-49
2023/05/12 04:11:33;;;;;;;10.67;9.37;;;;;;;9.30;91.95;97675.72;6161118;28;20235;-50
2023/05/12 04:14:36;;;;;;;10.60;9.57;;;;;;;9.27;91.87;97670.88;6134556;28;20234;-50
2023/05/12 04:17:44;;;;;;;11.77;8.80;;;;;;;9.26;91.60;97680.72;6145822;28;20232;-46
2023/05/12 04:20:46;;;;;;;10.10;8.33;;;;;;;9.25;91.36;97679.06;6146765;28;20328;-46
2023/05/12 04:23:51;;;;;;;9.03;8.13;;;;;;;9.21;92.24;97679.75;6163028;28;20718;-47
2023/05/12 04:26:56;;;;;;;10.03;8.97;;;;;;;9.20;92.10;97678.97;6130362;28;20231;-48
2023/05/12 04:29:59;;;;;;;8.63;7.73;;;;;;;9.20;92.45;97689.59;6138428;28;20299;-52
2023/05/12 04:33:03;;;;;;;10.83;8.70;;;;;;;9.20;92.14;97691.44;6115762;28;20313;-51
2023/05/12 04:36:06;;;;;;;8.40;7.60;;;;;;;9.17;92.24;97683.94;6135695;28;21004;-46
2023/05/12 04:39:09;;;;;;;8.67;7.77;;;;;;;9.20;92.75;97694.91;6126626;28;20298;-45
2023/05/12 04:42:11;;;;;;;8.03;7.33;;;;;;;9.20;92.38;97697.56;6145270;28;20216;-46
2023/05/12 04:45:13;;;;;;;8.97;8.13;;;;;;;9.22;92.53;97692.03;6134590;28;21027;-47
2023/05/12 04:48:16;;;;;;;9.60;8.70;;;;;;;9.20;92.45;97702.06;6144248;28;20269;-49
2023/05/12 04:51:18;;;;;;;8.77;7.97;;;;;;;9.22;92.40;97700.00;6162669;28;20217;-50
2023/05/12 04:54:21;;;;;;;7.53;6.73;;;;;;;9.22;92.45;97697.34;6138564;28;20241;-49
2023/05/12 04:57:23;;;;;;;8.10;7.40;;;;;;;9.23;92.48;97701.63;6145870;28;20580;-46
2023/05/12 05:00:26;;;;;;;9.37;8.47;;;;;;;9.28;92.44;97701.72;6132439;28;20753;-47
2023/05/12 05:03:29;;;;;;;10.43;9.43;;;;;;;9.24;92.59;97697.91;6139036;28;20242;-51
2023/05/12 05:06:31;;;;;;;10.00;9.00;;;;;;;9.28;92.64;97704.38;6137601;28;20231;-49
2023/05/12 05:09:35;;;;;;;9.03;8.23;;;;;;;9.27;92.25;97698.25;6126708;28;20231;-51
2023/05/12 05:12:38;;;;;;;10.23;9.23;;;;;;;9.29;92.45;97692.72;6133513;28;20280;-50
2023/05/12 05:15:51;;;;;;;9.23;8.43;;;;;;;9.33;91.67;97693.06;6149077;28;20651;-50
2023/05/12 05:18:55;;;;;;;8.30;7.40;;;;;;;9.27;91.96;97703.59;6137727;28;20244;-51
2023/05/12 05:21:59;;;;;;;8.57;7.77;;;;;;;9.29;92.04;97696.16;6129765;28;20313;-52
2023/05/12 05:25:01;;;;;;;9.53;8.40;;;;;;;9.32;92.49;97700.22;6137118;28;20389;-49
2023/05/12 05:28:04;;;;;;;7.37;6.70;;;;;;;9.32;92.29;97700.22;6147625;28;20266;-51
2023/05/12 05:31:07;;;;;;;7.07;6.47;;;;;;;9.34;92.46;97702.66;6136522;28;20243;-51
2023/05/12 05:34:09;;;;;;;7.47;6.57;;;;;;;9.34;92.43;97700.78;6146748;28;20320;-46
2023/05/12 05:37:12;;;;;;;8.47;6.97;;;;;;;9.38;92.39;97701.94;6137082;28;20364;-51
2023/05/12 05:40:15;;;;;;;8.27;7.03;;;;;;;9.39;92.65;97694.78;6144457;28;20236;-50
2023/05/12 05:43:17;;;;;;;6.93;6.33;;;;;;;9.41;91.94;97701.50;6129942;28;20243;-51
2023/05/12 05:46:19;;;;;;;7.83;6.07;;;;;;;9.44;91.16;97689.56;6145778;28;20242;-52
2023/05/12 05:49:22;;;;;;;6.67;6.07;;;;;;;9.40;91.75;97701.69;6129563;28;20621;-48
2023/05/12 05:52:25;;;;;;;7.87;6.03;;;;;;;9.40;92.08;97701.69;6127269;28;20611;-52
2023/05/12 05:55:27;;;;;;;6.87;5.70;;;;;;;9.39;92.07;97702.75;6148189;28;20327;-51
2023/05/12 05:58:30;;;;;;;6.70;5.83;;;;;;;9.37;92.14;97702.19;6144046;28;20235;-52
2023/05/12 06:01:35;;;;;;;7.80;7.07;;;;;;;9.40;92.16;97701.69;6128249;28;20249;-50
2023/05/12 06:04:38;;;;;;;6.87;6.27;;;;;;;9.37;92.40;97713.63;6155741;28;20258;-50
2023/05/12 06:07:41;;;;;;;6.37;5.80;;;;;;;9.43;91.37;97722.53;6128657;28;20716;-49
2023/05/12 06:10:43;;;;;;;6.60;6.00;;;;;;;9.48;90.25;97712.78;6144310;28;20242;-46
2023/05/12 06:13:45;;;;;;;6.47;5.90;;;;;;;9.43;91.20;97711.88;6144627;28;20270;-51
2023/05/12 06:16:47;;;;;;;10.83;6.23;;;;;;;9.34;91.87;97724.72;6138082;28;21051;-51
2023/05/12 06:19:50;;;;;;;7.00;6.40;;;;;;;9.33;91.71;97725.75;6143442;28;20238;-46
2023/05/12 06:22:52;;;;;;;6.47;5.90;;;;;;;9.29;92.11;97730.72;6128227;28;20235;-46
2023/05/12 06:25:54;;;;;;;6.20;5.70;;;;;;;9.29;92.46;97722.75;6143502;28;20251;-46
2023/05/12 06:28:57;;;;;;;9.53;6.40;;;;;;;9.36;92.76;97729.78;6146333;28;20770;-47
2023/05/12 06:31:59;;;;;;;7.67;6.97;;;;;;;9.33;92.67;97724.97;6127223;28;20328;-47
2023/05/12 06:35:05;;;;;;;7.37;6.40;;;;;;;9.42;92.71;97727.03;6160338;28;20243;-46
2023/05/12 06:38:07;;;;;;;7.33;6.63;;;;;;;9.43;92.44;97725.97;6133927;28;20584;-46
2023/05/12 06:41:10;;;;;;;7.10;6.40;;;;;;;9.41;92.87;97733.41;6158235;28;20258;-47
2023/05/12 06:44:13;;;;;;;7.70;5.57;;;;;;;9.43;92.68;97735.81;6160502;28;20701;-46
2023/05/12 06:47:16;;;;;;;7.80;5.40;;;;;;;9.40;93.07;97734.41;6145129;28;20565;-47
2023/05/12 06:50:18;;;;;;;9.07;5.30;;;;;;;9.40;93.21;97736.28;6127387;28;20375;-48
2023/05/12 06:53:25;;;;;;;6.47;4.57;;;;;;;9.36;92.88;97741.25;6143533;28;20243;-46
2023/05/12 06:56:28;;;;;;;8.97;5.23;;;;;;;9.39;92.89;97742.63;6146493;28;20239;-46
2023/05/12 06:59:30;;;;;;;6.17;4.33;;;;;;;9.42;93.31;97737.66;6143314;28;20728;-47
2023/05/12 07:02:33;;;;;;;5.27;4.40;;;;;;;9.43;92.98;97733.97;6143420;28;20234;-47
2023/05/12 07:05:36;;;;;;;5.07;4.10;;;;;;;9.40;92.92;97739.72;6143016;28;20258;-47
2023/05/12 07:08:39;;;;;;;6.07;4.50;;;;;;;9.43;92.57;97735.81;6141491;28;20239;-48
2023/05/12 07:11:41;;;;;;;5.20;4.63;;;;;;;9.41;92.72;97744.03;6144354;28;20724;-46
2023/05/12 07:14:43;;;;;;;7.27;5.13;;;;;;;9.50;92.35;97739.16;6148466;28;20243;-47
2023/05/12 07:17:46;;;;;;;5.73;4.67;;;;;;;9.55;91.84;97747.22;6143831;28;20235;-48
2023/05/12 07:20:49;;;;;;;9.63;4.30;;;;;;;9.46;92.77;97736.16;6141484;28;20230;-47
2023/05/12 07:23:51;;;;;;;6.33;5.07;;;;;;;9.47;93.18;97731.66;6143403;28;20238;-48
2023/05/12 07:26:54;;;;;;;8.73;5.10;;;;;;;9.56;92.61;97728.41;6142802;28;20243;-47
2023/05/12 07:29:56;;;;;;;6.40;4.83;;;;;;;9.46;92.84;97730.84;6145005;28;20245;-47
2023/05/12 07:33:00;;;;;;;6.20;5.30;;;;;;;9.46;92.89;97730.03;6134679;28;20239;-47
2023/05/12 07:36:07;;;;;;;7.67;5.23;;;;;;;9.50;93.29;97739.94;6144857;28;20227;-46
2023/05/12 07:39:10;;;;;;;9.47;5.10;;;;;;;9.63;92.11;97740.75;6143589;28;20226;-47
2023/05/12 07:42:12;;;;;;;9.50;5.27;;;;;;;9.56;92.26;97744.38;6143193;28;20229;-46
2023/05/12 07:45:21;;;;;;;6.07;5.00;;;;;;;9.56;92.25;97743.56;6158527;28;20251;-46
2023/05/12 07:48:23;;;;;;;9.27;5.50;;;;;;;9.52;92.01;97745.88;6141514;28;20227;-46
2023/05/12 07:51:26;;;;;;;7.17;4.53;;;;;;;9.49;92.61;97745.50;6141787;28;20231;-45
2023/05/12 07:54:28;;;;;;;13.23;5.17;;;;;;;9.48;92.78;97750.03;6143687;28;20233;-46
2023/05/12 07:57:30;;;;;;;7.13;4.77;;;;;;;9.52;92.74;97750.38;6141415;28;20238;-46
2023/05/12 08:00:33;;;;;;;6.10;5.47;;;;;;;9.51;93.13;97759.41;6141696;28;20537;-47
2023/05/12 08:03:35;;;;;;;7.03;5.63;;;;;;;9.60;93.00;97765.16;6143084;28;20237;-47
2023/05/12 08:06:37;;;;;;;5.13;4.63;;;;;;;9.50;93.02;97765.75;6146644;28;20238;-47
2023/05/12 08:09:40;;;;;;;5.97;5.10;;;;;;;9.53;92.46;97770.59;6143307;28;20364;-48
2023/05/12 08:12:42;;;;;;;5.87;5.37;;;;;;;9.73;91.60;97767.56;6132612;28;20242;-48
2023/05/12 08:15:46;;;;;;;5.70;5.10;;;;;;;9.56;91.53;97762.97;6141539;28;20233;-50
2023/05/12 08:18:48;;;;;;;12.23;4.93;;;;;;;9.48;92.27;97765.97;6142954;28;20306;-49
2023/05/12 08:21:51;;;;;;;7.63;4.90;;;;;;;9.46;92.44;97768.06;6144359;28;20239;-46
2023/05/12 08:24:53;;;;;;;8.40;5.70;;;;;;;9.45;92.82;97776.25;6131633;28;20642;-48
2023/05/12 08:27:56;;;;;;;5.80;5.03;;;;;;;9.47;92.91;97775.00;6131446;28;20724;-45
2023/05/12 08:30:59;;;;;;;5.37;4.80;;;;;;;9.45;92.00;97781.59;6138750;28;20231;-46
2023/05/12 08:34:05;;;;;;;6.33;5.03;;;;;;;9.46;92.04;97777.91;6128084;28;20238;-50
2023/05/12 08:37:12;;;;;;;8.27;5.73;;;;;;;9.45;92.68;97778.91;6143708;28;20231;-46
2023/05/12 08:40:21;;;;;;;5.17;4.67;;;;;;;9.48;92.45;97776.63;6142573;28;20872;-45
2023/05/12 08:43:25;;;;;;;9.20;5.00;;;;;;;9.54;92.65;97777.53;6135234;28;20378;-45
2023/05/12 08:46:30;;;;;;;6.40;4.50;;;;;;;9.47;92.72;97768.88;6143524;28;20239;-45
2023/05/12 08:49:35;;;;;;;7.60;5.23;;;;;;;9.57;92.43;97772.56;6142818;28;20237;-46
2023/05/12 08:52:38;;;;;;;5.37;4.87;;;;;;;9.46;92.51;97757.44;6140213;28;20765;-49
2023/05/12 08:55:43;;;;;;;7.10;4.90;;;;;;;9.53;92.58;97787.38;6145181;28;20374;-47
2023/05/12 08:59:08;;;;;;;12.83;5.47;;;;;;;9.68;91.96;97780.75;6143012;28;20240;-46
2023/05/12 09:02:12;;;;;;;6.80;4.63;;;;;;;9.61;91.72;97774.78;6146116;28;20462;-48
2023/05/12 09:05:14;;;;;;;5.87;5.27;;;;;;;9.53;92.28;97784.72;6147693;28;20236;-47
2023/05/12 09:08:17;;;;;;;5.97;5.20;;;;;;;9.59;92.20;97782.97;6144814;28;20274;-50
2023/05/12 09:11:22;;;;;;;6.30;5.70;;;;;;;9.44;92.51;97780.78;6148377;28;20231;-48
2023/05/12 09:14:25;;;;;;;6.93;6.23;;;;;;;9.55;92.82;97797.75;6146872;28;20273;-46
2023/05/12 09:17:27;;;;;;;7.60;6.63;;;;;;;9.61;93.03;97807.50;6147019;28;20234;-45
2023/05/12 09:20:30;;;;;;;6.90;6.20;;;;;;;9.71;92.83;97810.38;6146002;28;20237;-46
2023/05/12 09:23:33;;;;;;;6.60;5.97;;;;;;;9.78;91.98;97803.06;6135427;28;20344;-51
2023/05/12 09:26:46;;;;;;;6.27;5.57;;;;;;;9.72;91.43;97812.00;6142203;28;20317;-48
2023/05/12 09:29:49;;;;;;;5.20;4.70;;;;;;;9.74;91.75;97804.56;6147225;28;20276;-46
2023/05/12 09:33:12;;;;;;;6.50;4.67;;;;;;;9.74;91.92;97812.56;6145799;28;20647;-48
2023/05/12 09:36:19;;;;;;;4.40;4.00;;;;;;;9.73;91.74;97818.91;6145634;28;20222;-47
2023/05/12 09:39:21;;;;;;;6.63;4.40;;;;;;;9.69;91.81;97815.09;6146796;28;20733;-48
2023/05/12 09:42:27;;;;;;;5.70;4.37;;;;;;;9.73;92.36;97815.47;6145851;28;20239;-51
2023/05/12 09:45:37;;;;;;;4.73;4.23;;;;;;;9.77;92.00;97814.75;6144921;28;20239;-49
2023/05/12 09:48:39;;;;;;;7.30;4.30;;;;;;;9.73;91.47;97818.13;6146131;28;20722;-47
2023/05/12 09:51:42;;;;;;;7.23;4.40;;;;;;;9.71;90.44;97825.53;6146385;28;20598;-49
2023/05/12 09:54:46;;;;;;;7.40;4.20;;;;;;;9.74;89.99;97814.41;6147064;28;20243;-50
2023/05/12 09:57:49;;;;;;;10.47;4.90;;;;;;;9.67;90.71;97830.50;6145828;28;20243;-48
2023/05/12 10:00:52;;;;;;;5.00;4.50;;;;;;;9.69;90.83;97827.59;6146320;28;20278;-50
2023/05/12 10:03:58;;;;;;;5.67;4.30;;;;;;;9.73;91.11;97826.09;6146209;28;20327;-46
2023/05/12 10:07:01;;;;;;;4.50;4.10;;;;;;;9.79;90.96;97817.97;6145192;28;20246;-48
2023/05/12 10:10:06;;;;;;;8.00;4.83;;;;;;;9.90;91.03;97824.34;6144724;28;20265;-49
2023/05/12 10:13:12;;;;;;;5.83;5.27;;;;;;;9.85;91.01;97828.72;6144439;28;20630;-50
2023/05/12 10:16:15;;;;;;;7.87;5.07;;;;;;;9.89;88.88;97822.72;6148251;28;20247;-50
2023/05/12 10:19:18;;;;;;;6.67;4.97;;;;;;;9.86;88.78;97812.56;6145716;28;20243;-50
2023/05/12 10:22:22;;;;;;;7.00;5.03;;;;;;;9.87;89.69;97827.47;6148002;28;20247;-45
2023/05/12 10:25:24;;;;;;;7.73;5.40;;;;;;;9.95;89.34;97828.94;6144766;28;20236;-50
2023/05/12 10:28:30;;;;;;;6.63;4.97;;;;;;;9.89;90.32;97820.06;6146095;28;20262;-49
2023/05/12 10:31:34;;;;;;;5.67;5.03;;;;;;;9.97;90.45;97821.56;6141932;28;20236;-50
2023/05/12 10:34:38;;;;;;;6.37;4.70;;;;;;;9.95;90.60;97824.47;6146350;28;20242;-51
2023/05/12 10:37:42;;;;;;;4.87;4.47;;;;;;;9.91;90.36;97841.13;6137083;28;20305;-51
2023/05/12 10:40:59;;;;;;;5.80;4.80;;;;;;;9.91;90.33;97833.97;6143278;28;20296;-47
2023/05/12 10:44:02;;;;;;;6.27;4.77;;;;;;;9.80;90.09;97827.59;6143617;28;20248;-51
2023/05/12 10:47:13;;;;;;;7.07;5.00;;;;;;;9.93;89.42;97825.72;6142680;28;20333;-51
2023/05/12 10:50:26;;;;;;;12.77;6.50;;;;;;;9.76;90.11;97833.63;6143768;28;20759;-51
2023/05/12 10:53:32;;;;;;;5.70;4.47;;;;;;;9.55;90.89;97833.13;6143400;28;20243;-51
2023/05/12 10:56:50;;;;;;;6.03;5.03;;;;;;;9.56;90.76;97834.78;6145519;28;20247;-50
2023/05/12 10:59:57;;;;;;;6.53;4.83;;;;;;;9.54;91.53;97839.50;6128654;28;20232;-50
2023/05/12 11:03:01;;;;;;;5.63;5.03;;;;;;;9.48;91.11;97836.97;6142957;28;20290;-51
2023/05/12 11:06:18;;;;;;;6.17;4.67;;;;;;;9.46;91.82;97834.56;6143918;28;20235;-51
2023/05/12 11:09:21;;;;;;;5.43;4.87;;;;;;;9.48;91.66;97831.66;6143530;28;20216;-47
2023/05/12 11:12:27;;;;;;;5.90;5.30;;;;;;;9.45;91.42;97840.88;6148856;28;20231;-50
2023/05/12 11:15:30;;;;;;;11.20;5.10;;;;;;;9.46;91.88;97842.53;6146808;28;20231;-50
2023/05/12 11:18:32;;;;;;;5.83;4.63;;;;;;;9.49;91.78;97854.53;6143078;28;20253;-50
2023/05/12 11:21:35;;;;;;;7.97;4.70;;;;;;;9.46;91.35;97841.72;6144269;28;20238;-51
2023/05/12 11:24:41;;;;;;;5.83;4.90;;;;;;;9.50;91.63;97848.97;6145142;28;20239;-50
2023/05/12 11:27:47;;;;;;;5.97;4.57;;;;;;;9.51;91.54;97853.28;6142689;28;20491;-51
2023/05/12 11:30:53;;;;;;;9.07;4.70;;;;;;;9.47;91.75;97852.13;6143017;28;20252;-51
2023/05/12 11:34:06;;;;;;;11.53;5.70;;;;;;;9.44;91.44;97855.22;6144765;28;20735;-45
2023/05/12 11:37:14;;;;;;;7.60;5.13;;;;;;;9.42;91.43;97854.66;6141995;28;20601;-45
2023/05/12 11:40:18;;;;;;;9.90;4.77;;;;;;;9.48;91.71;97858.25;6133213;28;20247;-46
2023/05/12 11:43:21;;;;;;;9.07;4.73;;;;;;;9.43;91.27;97863.44;6142680;28;20317;-46
2023/05/12 11:46:27;;;;;;;6.87;5.10;;;;;;;9.39;91.57;97867.59;6140975;28;20314;-45
2023/05/12 11:49:31;;;;;;;6.63;4.80;;;;;;;9.41;91.51;97871.66;6135252;28;20767;-45
2023/05/12 11:52:33;;;;;;;6.93;5.37;;;;;;;9.44;90.06;97865.88;6143086;28;20235;-46
2023/05/12 11:55:36;;;;;;;7.53;5.03;;;;;;;9.35;90.84;97866.44;6144423;28;20236;-45
2023/05/12 11:58:38;;;;;;;9.17;5.63;;;;;;;9.35;91.18;97869.91;6143193;28;20261;-47
2023/05/12 12:01:47;;;;;;;8.37;5.10;;;;;;;9.39;91.07;97873.72;6141801;28;20318;-46
2023/05/12 12:04:49;;;;;;;7.23;5.03;;;;;;;9.39;91.52;97875.56;6147350;28;20241;-45
2023/05/12 12:08:07;;;;;;;6.00;4.93;;;;;;;9.39;91.01;97876.38;6148783;28;20250;-46
2023/05/12 12:11:10;;;;;;;7.23;5.10;;;;;;;9.43;91.08;97877.53;6144105;28;20254;-47
2023/05/12 12:14:12;;;;;;;7.67;5.20;;;;;;;9.33;91.15;97882.63;6143605;28;20240;-45
2023/05/12 12:17:15;;;;;;;8.03;6.00;;;;;;;9.30;91.63;97889.19;6145781;28;20248;-45
2023/05/12 12:20:17;;;;;;;12.87;6.07;;;;;;;9.25;90.94;97882.94;6143876;28;20251;-46
2023/05/12 12:23:19;;;;;;;10.87;6.27;;;;;;;9.23;90.95;97883.19;6146906;28;20836;-47
2023/05/12 12:26:22;;;;;;;9.93;6.33;;;;;;;9.19;91.53;97884.66;6142887;28;20242;-45
2023/05/12 12:29:27;;;;;;;8.33;5.50;;;;;;;9.20;91.91;97882.81;6142510;28;20238;-45
2023/05/12 12:32:30;;;;;;;8.40;6.10;;;;;;;9.19;91.70;97889.97;6142653;28;20234;-47
2023/05/12 12:35:32;;;;;;;7.20;6.33;;;;;;;9.17;91.69;97889.41;6144450;28;20239;-47
2023/05/12 12:38:34;;;;;;;8.17;6.50;;;;;;;9.15;91.83;97894.13;6146624;28;20325;-46
2023/05/12 12:41:36;;;;;;;6.87;6.17;;;;;;;9.11;90.65;97897.47;6148587;28;20252;-44
2023/05/12 12:44:39;;;;;;;9.77;6.57;;;;;;;9.09;90.60;97900.34;6146915;28;20584;-45
2023/05/12 12:47:42;;;;;;;6.70;5.80;;;;;;;9.12;91.18;97899.91;6146779;28;20229;-46
2023/05/12 12:50:44;;;;;;;8.77;6.03;;;;;;;9.11;91.72;97905.44;6148917;28;20242;-48
2023/05/12 12:53:46;;;;;;;8.63;6.17;;;;;;;9.11;91.15;97900.94;6147698;28;20243;-46
2023/05/12 12:56:49;;;;;;;6.30;5.70;;;;;;;9.07;90.96;97902.44;6146017;28;20238;-45
2023/05/12 12:59:51;;;;;;;6.43;5.67;;;;;;;9.03;91.05;97895.94;6145590;28;20239;-46
2023/05/12 13:02:54;;;;;;;8.17;5.80;;;;;;;8.96;91.55;97906.66;6148521;28;20246;-45
2023/05/12 13:05:57;;;;;;;7.10;5.83;;;;;;;8.95;91.83;97907.69;6146952;28;20278;-45
2023/05/12 13:09:00;;;;;;;7.13;6.10;;;;;;;8.97;92.24;97908.31;6145087;28;20272;-50
2023/05/12 13:12:03;;;;;;;7.37;6.23;;;;;;;9.02;91.21;97911.09;6136883;28;20236;-45
2023/05/12 13:15:06;;;;;;;7.27;5.87;;;;;;;8.90;91.66;97902.25;6148848;28;20259;-45
2023/05/12 13:18:08;;;;;;;7.03;6.37;;;;;;;8.91;91.43;97903.84;6147592;28;20304;-46
2023/05/12 13:21:11;;;;;;;7.23;6.13;;;;;;;8.86;91.94;97892.28;6145935;28;20660;-45
2023/05/12 13:24:13;;;;;;;7.33;6.73;;;;;;;8.76;92.10;97885.66;6144607;28;20219;-44
2023/05/12 13:27:15;;;;;;;7.20;6.37;;;;;;;8.86;92.29;97901.06;6146338;28;20226;-46
2023/05/12 13:30:18;;;;;;;8.60;7.27;;;;;;;8.86;92.32;97894.94;6147620;28;20303;-44
2023/05/12 13:33:20;;;;;;;8.10;6.73;;;;;;;8.88;92.21;97888.38;6143846;28;20217;-47
2023/05/12 13:36:22;;;;;;;6.87;6.17;;;;;;;8.83;91.65;97898.88;6145500;28;20265;-45
2023/05/12 13:39:25;;;;;;;8.93;6.77;;;;;;;8.88;92.21;97893.72;6137672;28;20238;-44
2023/05/12 13:42:28;;;;;;;7.63;6.83;;;;;;;8.87;91.78;97889.44;6147171;28;20651;-45
2023/05/12 13:45:30;;;;;;;9.67;7.70;;;;;;;8.93;92.37;97891.19;6146541;28;20246;-48
2023/05/12 13:48:32;;;;;;;8.17;7.47;;;;;;;8.93;92.57;97899.16;6144560;28;20257;-45
2023/05/12 13:51:34;;;;;;;8.83;7.87;;;;;;;8.97;92.39;97897.66;6147223;28;20239;-46
2023/05/12 13:54:36;;;;;;;7.63;6.87;;;;;;;8.99;92.19;97898.25;6130971;28;20713;-45
2023/05/12 13:57:39;;;;;;;9.23;7.17;;;;;;;8.96;91.96;97892.56;6144696;28;20234;-46
2023/05/12 14:00:42;;;;;;;8.00;7.00;;;;;;;8.96;92.37;97904.00;6147258;28;20266;-45
2023/05/12 14:03:44;;;;;;;7.23;6.63;;;;;;;8.98;92.38;97909.91;6137036;28;20341;-49
2023/05/12 14:06:47;;;;;;;6.10;5.60;;;;;;;8.97;92.30;97902.19;6145058;28;20273;-49
2023/05/12 14:09:49;;;;;;;7.57;6.67;;;;;;;8.98;92.22;97907.25;6144959;28;20243;-48
2023/05/12 14:12:51;;;;;;;7.00;6.27;;;;;;;9.00;92.36;97901.72;6143972;28;20272;-44
2023/05/12 14:15:53;;;;;;;9.93;7.13;;;;;;;9.00;92.31;97907.81;6148833;28;20695;-47
2023/05/12 14:18:56;;;;;;;8.80;7.50;;;;;;;8.99;92.14;97908.88;6145169;28;20630;-47
2023/05/12 14:21:58;;;;;;;7.70;7.00;;;;;;;9.01;92.53;97911.28;6146267;28;20945;-45
2023/05/12 14:25:01;;;;;;;8.07;7.27;;;;;;;9.02;92.40;97911.09;6145866;28;20300;-48
2023/05/12 14:28:03;;;;;;;8.03;7.27;;;;;;;9.09;92.76;97913.63;6145008;28;20241;-49
2023/05/12 14:31:06;;;;;;;15.57;6.87;;;;;;;9.11;92.04;97918.72;6143108;28;20596;-45
2023/05/12 14:34:08;;;;;;;9.17;6.83;;;;;;;9.02;91.45;97916.41;6145393;28;20237;-47